Time;durP1;ratioP1;P1;durP2;ratioP2;P2;SDS_P1;SDS_P2;PMS_P1;PMS_P2;Temp;Humidity;BMP_temperature;BMP_pressure;BME280_temperature;BME280_humidity;BME280_pressure;Samples;Min_cycle;Max_cycle;Signal;HPM_P1;HPM_P2
2024/04/16 00:00:36;;;;;;;1.17;0.55;;;18.30;59.70;;;;;;6579342;21;20214;-81
2024/04/16 00:03:02;;;;;;;0.35;0.35;;;18.40;59.80;;;;;;6493069;21;20389;-83
2024/04/16 00:05:28;;;;;;;0.52;0.32;;;18.30;59.80;;;;;;6535688;21;20653;-80
2024/04/16 00:07:54;;;;;;;0.57;0.40;;;18.30;59.90;;;;;;6579054;21;20260;-83
2024/04/16 00:10:20;;;;;;;0.52;0.40;;;18.30;59.90;;;;;;6581402;21;20212;-81
2024/04/16 00:12:47;;;;;;;0.73;0.50;;;18.30;60.00;;;;;;6535654;21;20217;-82
2024/04/16 00:15:13;;;;;;;0.57;0.43;;;18.30;59.90;;;;;;6493026;21;20244;-81
2024/04/16 00:17:40;;;;;;;0.50;0.40;;;18.20;59.80;;;;;;6492213;21;20225;-81
2024/04/16 00:20:06;;;;;;;0.55;0.40;;;18.30;60.00;;;;;;6535533;21;20221;-83
2024/04/16 00:22:33;;;;;;;0.95;0.47;;;18.30;59.90;;;;;;6579044;21;20213;-83
2024/04/16 00:24:59;;;;;;;1.33;0.60;;;18.30;59.90;;;;;;6535065;21;20233;-81
2024/04/16 00:27:24;;;;;;;0.30;0.30;;;18.30;60.00;;;;;;6535273;21;20316;-81
2024/04/16 00:29:54;;;;;;;1.17;0.68;;;18.30;60.10;;;;;;6492622;21;20688;-81
2024/04/16 00:32:20;;;;;;;0.85;0.40;;;18.30;60.10;;;;;;6491043;21;20704;-82
2024/04/16 00:34:46;;;;;;;1.50;0.47;;;18.30;60.10;;;;;;6580472;21;20616;-83
2024/04/16 00:37:12;;;;;;;1.30;0.60;;;18.20;60.20;;;;;;6580844;21;20217;-82
2024/04/16 00:39:38;;;;;;;0.75;0.50;;;18.20;60.20;;;;;;6535066;21;20652;-80
2024/04/16 00:42:04;;;;;;;0.30;0.30;;;18.20;60.00;;;;;;6535224;21;20323;-82
2024/04/16 00:44:30;;;;;;;0.73;0.40;;;18.20;60.20;;;;;;6535259;21;20520;-81
2024/04/16 00:46:56;;;;;;;0.45;0.30;;;18.20;60.00;;;;;;6535413;21;20217;-83
2024/04/16 00:49:22;;;;;;;0.45;0.43;;;18.30;60.00;;;;;;6492503;21;20221;-80
2024/04/16 00:51:48;;;;;;;0.50;0.50;;;18.20;60.00;;;;;;6423241;22;20415;-83
2024/04/16 00:54:14;;;;;;;0.80;0.60;;;18.20;60.10;;;;;;6380426;22;20610;-82
2024/04/16 00:56:40;;;;;;;0.45;0.45;;;18.20;60.00;;;;;;6381589;22;20648;-81
2024/04/16 00:59:06;;;;;;;0.75;0.30;;;18.20;60.20;;;;;;6381261;22;20258;-81
2024/04/16 01:01:32;;;;;;;0.40;0.40;;;18.20;60.20;;;;;;6382147;22;20224;-83
2024/04/16 01:03:59;;;;;;;0.50;0.47;;;18.20;60.00;;;;;;6383707;22;20668;-81
2024/04/16 01:06:25;;;;;;;0.68;0.40;;;18.20;60.30;;;;;;6383216;22;20262;-81
2024/04/16 01:08:51;;;;;;;0.50;0.50;;;18.20;60.20;;;;;;6424737;22;20216;-83
2024/04/16 01:11:26;;;;;;;1.25;0.50;;;18.20;60.30;;;;;;6383168;22;20394;-81
2024/04/16 01:13:53;;;;;;;0.47;0.40;;;18.20;60.20;;;;;;6383593;22;20262;-82
2024/04/16 01:16:18;;;;;;;0.73;0.50;;;18.20;60.30;;;;;;6383054;22;20216;-83
2024/04/16 01:18:44;;;;;;;1.35;0.50;;;18.30;60.30;;;;;;6383285;22;20266;-81
2024/04/16 01:21:10;;;;;;;0.40;0.40;;;18.20;60.20;;;;;;6383694;22;20724;-80
2024/04/16 01:23:36;;;;;;;0.95;0.52;;;18.10;60.40;;;;;;6509379;21;20225;-82
2024/04/16 01:26:02;;;;;;;0.35;0.35;;;18.20;60.30;;;;;;6536886;21;20225;-82
2024/04/16 01:28:29;;;;;;;1.42;0.40;;;18.20;60.40;;;;;;6537712;21;20224;-80
2024/04/16 01:30:56;;;;;;;0.57;0.40;;;18.20;60.40;;;;;;6453714;21;20368;-83
2024/04/16 01:33:21;;;;;;;0.77;0.45;;;18.10;60.50;;;;;;6585582;21;20255;-80
2024/04/16 01:35:50;;;;;;;0.68;0.50;;;18.20;60.40;;;;;;6540173;21;20557;-81
2024/04/16 01:38:16;;;;;;;0.50;0.50;;;18.20;60.50;;;;;;6371257;21;20676;-82
2024/04/16 01:40:41;;;;;;;1.85;0.65;;;18.20;60.30;;;;;;6496331;21;20379;-80
2024/04/16 01:43:07;;;;;;;0.93;0.68;;;18.10;60.30;;;;;;6539315;21;20217;-82
2024/04/16 01:45:34;;;;;;;1.27;0.43;;;18.10;60.30;;;;;;6496117;21;20637;-83
2024/04/16 01:48:00;;;;;;;0.82;0.60;;;18.20;60.30;;;;;;6539686;21;20331;-81
2024/04/16 01:50:25;;;;;;;0.90;0.35;;;18.20;60.20;;;;;;6496611;21;20524;-81
2024/04/16 01:52:51;;;;;;;0.88;0.50;;;18.20;60.30;;;;;;6539607;21;20213;-83
2024/04/16 01:55:17;;;;;;;0.80;0.40;;;18.20;60.30;;;;;;6496008;21;20229;-82
2024/04/16 01:57:43;;;;;;;0.50;0.38;;;18.20;60.50;;;;;;6539475;21;20292;-83
2024/04/16 02:00:09;;;;;;;0.50;0.35;;;18.20;60.60;;;;;;6496216;21;20720;-81
2024/04/16 02:02:35;;;;;;;0.90;0.50;;;18.10;60.70;;;;;;6538354;21;20222;-82
2024/04/16 02:05:02;;;;;;;0.60;0.47;;;18.10;60.50;;;;;;6537867;21;20720;-83
2024/04/16 02:07:27;;;;;;;0.45;0.43;;;18.10;60.50;;;;;;6583059;21;20212;-82
2024/04/16 02:09:54;;;;;;;0.52;0.50;;;18.10;60.30;;;;;;6537778;21;20255;-83
2024/04/16 02:12:20;;;;;;;0.50;0.40;;;18.20;60.30;;;;;;6537566;21;20228;-82
2024/04/16 02:14:47;;;;;;;1.80;0.50;;;18.20;60.30;;;;;;6494760;21;20259;-81
2024/04/16 02:17:12;;;;;;;0.73;0.45;;;18.10;60.30;;;;;;6495551;21;20263;-84
2024/04/16 02:19:39;;;;;;;0.77;0.40;;;18.10;60.20;;;;;;6537617;21;20217;-82
2024/04/16 02:22:05;;;;;;;0.32;0.30;;;18.10;60.30;;;;;;6583445;21;20252;-82
2024/04/16 02:24:30;;;;;;;0.98;0.50;;;18.20;60.50;;;;;;6497429;21;20240;-83
2024/04/16 02:26:56;;;;;;;0.40;0.40;;;18.10;60.60;;;;;;6538115;21;20220;-81
2024/04/16 02:29:22;;;;;;;0.57;0.45;;;18.10;60.50;;;;;;6537597;21;20217;-82
2024/04/16 02:31:48;;;;;;;1.88;0.50;;;18.10;60.50;;;;;;6582824;21;20217;-82
2024/04/16 02:34:13;;;;;;;1.05;0.50;;;18.10;60.20;;;;;;6580751;21;20251;-82
2024/04/16 02:36:39;;;;;;;1.02;0.52;;;18.10;60.30;;;;;;6580784;21;20645;-81
2024/04/16 02:39:05;;;;;;;1.27;0.65;;;18.20;60.30;;;;;;6537508;21;20263;-83
2024/04/16 02:41:32;;;;;;;1.08;0.47;;;18.10;60.20;;;;;;6537061;21;20680;-81
2024/04/16 02:43:57;;;;;;;0.70;0.60;;;18.10;60.30;;;;;;6537538;21;20259;-80
2024/04/16 02:46:23;;;;;;;0.60;0.60;;;18.20;61.50;;;;;;6537380;21;20649;-83
2024/04/16 02:48:49;;;;;;;1.30;0.50;;;18.00;60.60;;;;;;6537395;21;20263;-83
2024/04/16 02:51:15;;;;;;;0.73;0.50;;;18.10;60.90;;;;;;6494308;21;20684;-83
2024/04/16 02:53:42;;;;;;;0.40;0.40;;;18.00;60.80;;;;;;6580963;21;20292;-81
2024/04/16 02:56:09;;;;;;;0.65;0.57;;;18.00;60.70;;;;;;6535148;21;20760;-82
2024/04/16 02:58:37;;;;;;;0.77;0.45;;;18.00;60.70;;;;;;6580427;21;20592;-81
2024/04/16 03:01:06;;;;;;;0.43;0.40;;;18.10;60.50;;;;;;6537375;21;20264;-83
2024/04/16 03:03:32;;;;;;;0.88;0.43;;;18.00;60.80;;;;;;6494956;21;20217;-83
2024/04/16 03:05:58;;;;;;;0.47;0.40;;;18.00;60.60;;;;;;6495896;21;20240;-83
2024/04/16 03:08:24;;;;;;;0.60;0.40;;;18.00;60.60;;;;;;6581878;21;20232;-81
2024/04/16 03:10:50;;;;;;;1.38;0.50;;;18.10;60.60;;;;;;6584085;21;20212;-83
2024/04/16 03:13:16;;;;;;;0.68;0.40;;;18.10;60.60;;;;;;6581865;21;20225;-80
2024/04/16 03:15:42;;;;;;;0.50;0.40;;;18.00;60.90;;;;;;6581995;21;20583;-82
2024/04/16 03:18:08;;;;;;;0.82;0.57;;;18.10;60.90;;;;;;6537538;21;20277;-80
2024/04/16 03:20:33;;;;;;;1.33;0.50;;;18.00;61.00;;;;;;6580492;21;20719;-80
2024/04/16 03:22:59;;;;;;;0.80;0.50;;;18.00;60.70;;;;;;6580142;21;20213;-84
2024/04/16 03:25:25;;;;;;;0.70;0.40;;;18.00;60.80;;;;;;6536386;21;20716;-82
2024/04/16 03:27:51;;;;;;;0.50;0.50;;;18.00;60.80;;;;;;6494444;21;20235;-81
2024/04/16 03:30:17;;;;;;;1.38;0.65;;;18.10;60.90;;;;;;6497571;21;20221;-83
2024/04/16 03:32:43;;;;;;;0.80;0.50;;;18.00;60.60;;;;;;6540328;21;20213;-82
2024/04/16 03:35:08;;;;;;;3.08;0.50;;;18.00;60.70;;;;;;6540520;21;20256;-82
2024/04/16 03:37:34;;;;;;;0.85;0.45;;;18.00;60.90;;;;;;6497640;21;20216;-80
2024/04/16 03:40:00;;;;;;;1.15;0.50;;;18.00;60.70;;;;;;6497857;21;20525;-80
2024/04/16 03:42:26;;;;;;;0.80;0.60;;;18.00;61.00;;;;;;6540351;21;20221;-82
2024/04/16 03:44:54;;;;;;;0.50;0.50;;;17.90;60.70;;;;;;6540804;21;20217;-79
2024/04/16 03:47:21;;;;;;;0.60;0.57;;;18.00;60.90;;;;;;6497431;21;20578;-81
2024/04/16 03:49:47;;;;;;;0.68;0.52;;;18.00;60.90;;;;;;6541384;21;20219;-81
2024/04/16 03:52:13;;;;;;;1.00;0.60;;;18.00;61.10;;;;;;6540973;21;20240;-82
2024/04/16 03:54:38;;;;;;;0.73;0.73;;;18.00;61.00;;;;;;6539836;21;20217;-81
2024/04/16 03:57:07;;;;;;;0.75;0.40;;;18.00;60.90;;;;;;6539612;21;20260;-80
2024/04/16 03:59:38;;;;;;;1.02;0.60;;;18.00;61.10;;;;;;6494604;21;20525;-82
2024/04/16 04:02:05;;;;;;;0.45;0.45;;;18.00;60.80;;;;;;6497144;21;20228;-83
2024/04/16 04:04:30;;;;;;;0.95;0.50;;;18.00;60.90;;;;;;6538172;21;20255;-82
2024/04/16 04:06:56;;;;;;;0.73;0.60;;;17.90;60.70;;;;;;6582996;21;20217;-82
2024/04/16 04:09:22;;;;;;;0.73;0.50;;;18.00;61.00;;;;;;6583108;21;20258;-82
2024/04/16 04:11:48;;;;;;;1.35;0.57;;;17.90;61.70;;;;;;6537848;21;20554;-81
2024/04/16 04:14:15;;;;;;;0.50;0.40;;;17.90;61.00;;;;;;6537636;21;20300;-82
2024/04/16 04:16:40;;;;;;;1.50;0.57;;;17.90;60.80;;;;;;6538583;21;20277;-83
2024/04/16 04:19:06;;;;;;;0.60;0.60;;;17.90;61.00;;;;;;6537621;21;20209;-81
2024/04/16 04:21:32;;;;;;;0.55;0.50;;;17.90;61.10;;;;;;6538099;21;20259;-82
2024/04/16 04:23:58;;;;;;;0.50;0.40;;;17.90;61.00;;;;;;6495330;21;20581;-82
2024/04/16 04:26:23;;;;;;;0.75;0.50;;;17.90;61.00;;;;;;6537330;21;20568;-82
2024/04/16 04:28:49;;;;;;;0.65;0.43;;;17.90;60.80;;;;;;6538105;21;20213;-82
2024/04/16 04:31:16;;;;;;;0.80;0.50;;;17.90;61.10;;;;;;6494752;21;20626;-82
2024/04/16 04:33:43;;;;;;;0.50;0.32;;;18.00;61.20;;;;;;6495865;21;20259;-81
2024/04/16 04:36:11;;;;;;;0.50;0.40;;;17.90;60.70;;;;;;6368477;21;20653;-82
2024/04/16 04:38:37;;;;;;;0.40;0.40;;;18.00;61.10;;;;;;6495439;21;20755;-82
2024/04/16 04:41:03;;;;;;;0.50;0.50;;;17.90;60.90;;;;;;6495124;21;20221;-80
2024/04/16 04:43:29;;;;;;;0.82;0.40;;;17.90;61.20;;;;;;6537242;21;20315;-82
2024/04/16 04:45:57;;;;;;;0.43;0.43;;;17.90;61.00;;;;;;6537830;21;20271;-80
2024/04/16 04:48:25;;;;;;;1.25;0.50;;;17.90;61.20;;;;;;6410081;21;20213;-80
2024/04/16 04:50:51;;;;;;;0.65;0.50;;;17.90;61.00;;;;;;6409301;21;20252;-83
2024/04/16 04:53:17;;;;;;;0.40;0.40;;;17.90;60.80;;;;;;6368132;21;20220;-82
2024/04/16 04:55:43;;;;;;;0.68;0.45;;;17.90;60.90;;;;;;6494049;21;20259;-81
2024/04/16 04:58:10;;;;;;;0.50;0.50;;;17.90;61.00;;;;;;6494611;21;20278;-80
2024/04/16 05:00:37;;;;;;;0.90;0.60;;;18.00;60.90;;;;;;6494382;21;20288;-82
2024/04/16 05:03:03;;;;;;;0.85;0.43;;;17.90;60.90;;;;;;6494972;21;20217;-82
2024/04/16 05:05:31;;;;;;;0.57;0.52;;;17.90;61.20;;;;;;6452378;21;20267;-82
2024/04/16 05:07:57;;;;;;;0.63;0.40;;;18.00;61.10;;;;;;6452418;21;20217;-82
2024/04/16 05:10:24;;;;;;;0.73;0.35;;;17.90;60.80;;;;;;6537688;21;20259;-82
2024/04/16 05:12:50;;;;;;;0.50;0.50;;;18.00;61.00;;;;;;6495188;21;20209;-82
2024/04/16 05:15:17;;;;;;;0.70;0.43;;;17.90;61.00;;;;;;6453131;21;20248;-83
2024/04/16 05:17:43;;;;;;;0.68;0.52;;;17.90;61.20;;;;;;6495488;21;20221;-82
2024/04/16 05:20:09;;;;;;;0.57;0.40;;;17.90;61.10;;;;;;6452639;21;20267;-83
2024/04/16 05:22:36;;;;;;;0.52;0.50;;;17.90;61.30;;;;;;6494869;21;20213;-83
2024/04/16 05:25:02;;;;;;;1.17;0.43;;;17.90;61.30;;;;;;6465318;21;20245;-82
2024/04/16 05:27:30;;;;;;;0.60;0.50;;;17.90;61.40;;;;;;6452057;21;20277;-83
2024/04/16 05:29:56;;;;;;;1.73;0.60;;;17.80;61.50;;;;;;6452617;21;20248;-83
2024/04/16 05:32:21;;;;;;;0.40;0.40;;;17.90;60.90;;;;;;6535391;21;20268;-82
2024/04/16 05:34:48;;;;;;;0.98;0.70;;;17.90;61.30;;;;;;6493202;21;20212;-81
2024/04/16 05:37:14;;;;;;;0.47;0.43;;;17.90;61.50;;;;;;6534091;21;20795;-83
2024/04/16 05:39:40;;;;;;;0.50;0.50;;;17.80;61.40;;;;;;6489917;21;20217;-82
2024/04/16 05:42:06;;;;;;;0.65;0.50;;;17.80;61.40;;;;;;6491317;21;20284;-81
2024/04/16 05:44:34;;;;;;;1.48;0.60;;;17.90;61.30;;;;;;6492531;21;20550;-81
2024/04/16 05:47:00;;;;;;;0.68;0.55;;;17.90;61.60;;;;;;6492677;21;20291;-81
2024/04/16 05:49:25;;;;;;;0.90;0.55;;;17.90;61.30;;;;;;6493195;21;20228;-82
2024/04/16 05:51:51;;;;;;;0.50;0.50;;;17.90;61.30;;;;;;6492034;21;20221;-82
2024/04/16 05:54:19;;;;;;;2.22;0.47;;;17.90;61.20;;;;;;6491932;21;20213;-82
2024/04/16 05:56:48;;;;;;;1.20;0.50;;;17.90;61.30;;;;;;6535400;21;20214;-82
2024/04/16 05:59:13;;;;;;;0.50;0.50;;;17.90;61.20;;;;;;6533642;21;20213;-82
2024/04/16 06:01:39;;;;;;;0.73;0.50;;;17.90;61.20;;;;;;6535135;21;20259;-82
2024/04/16 06:04:06;;;;;;;0.47;0.40;;;17.90;61.30;;;;;;6534865;21;20288;-82
2024/04/16 06:06:32;;;;;;;0.35;0.35;;;17.90;61.30;;;;;;6580896;21;20209;-82
2024/04/16 06:08:58;;;;;;;0.70;0.50;;;17.90;61.20;;;;;;6492410;21;20259;-83
2024/04/16 06:11:24;;;;;;;1.08;0.60;;;17.90;61.00;;;;;;6492829;21;20209;-83
2024/04/16 06:13:50;;;;;;;0.50;0.50;;;18.10;60.70;;;;;;6492816;21;20214;-81
2024/04/16 06:16:20;;;;;;;0.30;0.30;;;18.00;60.70;;;;;;6537279;21;20327;-81
2024/04/16 06:18:50;;;;;;;0.50;0.50;;;18.00;60.60;;;;;;6493657;21;20319;-81
2024/04/16 06:21:16;;;;;;;1.35;0.50;;;18.10;60.50;;;;;;6538105;21;20260;-82
2024/04/16 06:23:41;;;;;;;0.50;0.50;;;18.10;59.90;;;;;;6537755;21;20217;-80
2024/04/16 06:26:09;;;;;;;2.65;0.60;;;18.10;60.10;;;;;;6539943;21;20267;-81
2024/04/16 06:28:36;;;;;;;0.40;0.40;;;18.10;59.70;;;;;;6546302;21;20228;-83
2024/04/16 06:31:06;;;;;;;0.50;0.50;;;18.10;59.80;;;;;;6501853;21;20243;-81
2024/04/16 06:33:36;;;;;;;0.52;0.40;;;18.20;59.60;;;;;;6460468;21;20331;-81
2024/04/16 06:36:04;;;;;;;0.50;0.40;;;18.20;59.90;;;;;;6506047;21;20242;-81
2024/04/16 06:38:31;;;;;;;0.60;0.40;;;18.20;59.80;;;;;;6503586;21;20232;-81
2024/04/16 06:40:56;;;;;;;0.40;0.40;;;18.20;59.70;;;;;;6546330;21;20668;-82
2024/04/16 06:43:24;;;;;;;0.50;0.50;;;18.20;59.60;;;;;;6546400;21;20281;-82
2024/04/16 06:45:52;;;;;;;0.60;0.60;;;18.20;59.60;;;;;;6502924;21;20258;-82
2024/04/16 06:48:18;;;;;;;0.57;0.50;;;18.30;59.50;;;;;;6458806;21;20706;-82
2024/04/16 06:50:47;;;;;;;0.43;0.43;;;18.20;59.30;;;;;;6502214;21;20220;-80
2024/04/16 06:53:14;;;;;;;0.55;0.40;;;18.20;59.50;;;;;;6544004;21;21068;-82
2024/04/16 06:55:40;;;;;;;0.52;0.35;;;18.30;59.70;;;;;;6587674;21;20212;-80
2024/04/16 06:58:06;;;;;;;0.47;0.40;;;18.20;59.60;;;;;;6544799;21;20626;-82
2024/04/16 07:00:33;;;;;;;1.00;0.38;;;18.20;59.60;;;;;;6545786;21;20243;-82
2024/04/16 07:02:58;;;;;;;0.40;0.40;;;18.20;59.80;;;;;;6502044;21;20301;-82
2024/04/16 07:05:24;;;;;;;0.30;0.30;;;18.20;59.30;;;;;;6546915;21;20220;-81
2024/04/16 07:07:50;;;;;;;0.50;0.50;;;18.20;59.40;;;;;;6590745;21;20693;-82
2024/04/16 07:10:16;;;;;;;0.52;0.50;;;18.20;59.40;;;;;;6546902;21;20268;-81
2024/04/16 07:12:41;;;;;;;0.55;0.50;;;18.20;59.20;;;;;;6547342;21;20259;-81
2024/04/16 07:15:08;;;;;;;1.02;0.60;;;18.30;59.60;;;;;;6636657;21;20216;-81
2024/04/16 07:17:34;;;;;;;0.40;0.30;;;18.20;59.40;;;;;;6547425;21;20258;-81
2024/04/16 07:20:00;;;;;;;0.63;0.52;;;18.20;59.60;;;;;;6590392;21;20246;-80
2024/04/16 07:22:26;;;;;;;1.10;0.40;;;18.30;59.50;;;;;;6546807;21;20342;-82
2024/04/16 07:24:54;;;;;;;0.40;0.40;;;18.20;59.80;;;;;;6582891;21;20224;-84
2024/04/16 07:27:21;;;;;;;0.70;0.32;;;18.20;59.60;;;;;;6540128;21;20217;-83
2024/04/16 07:29:47;;;;;;;0.40;0.40;;;18.20;58.90;;;;;;6539662;21;20768;-81
2024/04/16 07:32:13;;;;;;;0.30;0.30;;;18.20;58.80;;;;;;6539454;21;20216;-82
2024/04/16 07:34:43;;;;;;;0.38;0.35;;;18.30;58.90;;;;;;6582701;21;20244;-82
2024/04/16 07:37:09;;;;;;;0.52;0.50;;;18.30;58.80;;;;;;6537259;21;20529;-82
2024/04/16 07:39:34;;;;;;;0.40;0.40;;;18.30;59.00;;;;;;6580387;21;20637;-82
2024/04/16 07:42:00;;;;;;;0.63;0.47;;;18.30;59.00;;;;;;6537429;21;20311;-82
2024/04/16 07:44:26;;;;;;;0.73;0.50;;;18.30;59.10;;;;;;6537941;21;20661;-82
2024/04/16 07:46:55;;;;;;;0.80;0.50;;;18.30;59.00;;;;;;6537098;21;20217;-82
2024/04/16 07:49:22;;;;;;;0.47;0.40;;;18.30;58.80;;;;;;6582711;21;20220;-82
2024/04/16 07:51:49;;;;;;;0.40;0.40;;;18.40;58.80;;;;;;6583945;21;20217;-82
2024/04/16 07:54:14;;;;;;;0.55;0.50;;;18.40;58.80;;;;;;6581069;21;20328;-83
2024/04/16 07:56:40;;;;;;;0.35;0.35;;;18.40;58.60;;;;;;6494910;21;20220;-82
2024/04/16 07:59:06;;;;;;;0.40;0.40;;;18.40;58.90;;;;;;6538416;21;20209;-82
2024/04/16 08:01:32;;;;;;;0.30;0.30;;;18.40;59.20;;;;;;6538171;21;20326;-82
2024/04/16 08:03:58;;;;;;;0.40;0.40;;;18.40;58.90;;;;;;6581364;21;20209;-82
2024/04/16 08:06:23;;;;;;;0.40;0.40;;;18.40;58.70;;;;;;6583069;21;20498;-82
2024/04/16 08:08:50;;;;;;;0.40;0.40;;;18.40;59.10;;;;;;6496611;21;20238;-81
2024/04/16 08:11:16;;;;;;;0.55;0.40;;;18.40;59.20;;;;;;6498991;21;20229;-81
2024/04/16 08:13:43;;;;;;;0.60;0.40;;;18.40;58.90;;;;;;6498258;21;20264;-83
2024/04/16 08:16:17;;;;;;;0.45;0.45;;;18.40;58.80;;;;;;6587083;21;20688;-81
2024/04/16 08:18:44;;;;;;;0.77;0.38;;;18.50;58.90;;;;;;6493852;21;20306;-82
2024/04/16 08:21:10;;;;;;;0.52;0.38;;;18.50;59.10;;;;;;6582862;21;20259;-82
2024/04/16 08:23:36;;;;;;;0.35;0.35;;;18.50;58.60;;;;;;6536738;21;20209;-83
2024/04/16 08:26:03;;;;;;;0.57;0.30;;;18.50;58.40;;;;;;6581821;21;21188;-82
2024/04/16 08:28:30;;;;;;;0.43;0.43;;;18.50;58.90;;;;;;6450731;21;20221;-82
2024/04/16 08:30:56;;;;;;;0.40;0.40;;;18.60;58.50;;;;;;6534072;21;20225;-82
2024/04/16 08:33:22;;;;;;;0.35;0.35;;;18.60;58.80;;;;;;6493593;21;20260;-82
2024/04/16 08:35:52;;;;;;;0.40;0.40;;;18.60;58.80;;;;;;6458185;21;20303;-82
2024/04/16 08:38:20;;;;;;;0.40;0.40;;;18.60;58.30;;;;;;6541181;21;20260;-82
2024/04/16 08:40:50;;;;;;;0.55;0.30;;;18.60;58.90;;;;;;6240028;22;20231;-83
2024/04/16 08:43:20;;;;;;;0.40;0.40;;;18.60;58.30;;;;;;6160887;22;20383;-82
2024/04/16 08:45:46;;;;;;;0.63;0.40;;;18.70;58.30;;;;;;6196534;22;20604;-83
2024/04/16 08:48:11;;;;;;;0.30;0.30;;;18.60;58.90;;;;;;6235842;22;20774;-83
2024/04/16 08:50:37;;;;;;;0.40;0.40;;;18.60;58.80;;;;;;6235644;22;20223;-83
2024/04/16 08:53:04;;;;;;;0.28;0.28;;;18.60;58.60;;;;;;6235766;22;20587;-82
2024/04/16 08:55:32;;;;;;;0.47;0.30;;;18.60;58.70;;;;;;6195552;22;20376;-83
2024/04/16 08:57:58;;;;;;;0.30;0.30;;;18.60;58.20;;;;;;6236191;22;20266;-82
2024/04/16 09:00:23;;;;;;;1.27;0.40;;;18.60;58.60;;;;;;6196298;22;20231;-83
2024/04/16 09:02:50;;;;;;;1.15;0.50;;;18.60;58.50;;;;;;6235547;22;20231;-83
2024/04/16 09:05:17;;;;;;;0.50;0.30;;;18.60;58.60;;;;;;6196541;22;20600;-80
2024/04/16 09:07:42;;;;;;;0.80;0.35;;;18.60;58.70;;;;;;6203648;22;20239;-80
2024/04/16 09:10:12;;;;;;;1.63;0.40;;;18.70;58.20;;;;;;6247284;22;20366;-79
2024/04/16 09:12:41;;;;;;;0.30;0.30;;;18.70;58.00;;;;;;6503685;21;20221;-79
2024/04/16 09:15:08;;;;;;;1.85;0.40;;;18.70;58.40;;;;;;6545138;21;20261;-79
2024/04/16 09:17:34;;;;;;;1.00;0.45;;;18.70;58.50;;;;;;6588969;21;20213;-79
2024/04/16 09:20:01;;;;;;;0.30;0.30;;;18.70;58.50;;;;;;6589931;21;20270;-79
2024/04/16 09:22:26;;;;;;;1.13;0.30;;;18.60;58.80;;;;;;6589953;21;20251;-79
2024/04/16 09:24:52;;;;;;;0.45;0.32;;;18.70;58.70;;;;;;6589968;21;20653;-79
2024/04/16 09:27:20;;;;;;;0.57;0.47;;;18.60;58.70;;;;;;6587696;21;20213;-79
2024/04/16 09:29:47;;;;;;;0.20;0.20;;;18.60;58.60;;;;;;6372993;21;20220;-79
2024/04/16 09:32:12;;;;;;;0.65;0.30;;;18.60;58.80;;;;;;6587391;21;20332;-79
2024/04/16 09:34:42;;;;;;;0.30;0.30;;;18.60;59.10;;;;;;6586662;21;20256;-79
2024/04/16 09:37:08;;;;;;;0.93;0.40;;;18.60;58.70;;;;;;6498578;21;20213;-79
2024/04/16 09:39:35;;;;;;;0.30;0.30;;;18.60;58.70;;;;;;6587321;21;20263;-79
2024/04/16 09:42:01;;;;;;;0.50;0.40;;;18.50;58.80;;;;;;6588327;21;20255;-79
2024/04/16 09:44:27;;;;;;;0.30;0.30;;;18.60;58.80;;;;;;6586279;21;20221;-79
2024/04/16 09:46:54;;;;;;;0.52;0.32;;;18.60;58.40;;;;;;6543297;21;20730;-79
2024/04/16 09:49:23;;;;;;;1.33;0.30;;;18.70;59.10;;;;;;6543976;21;20213;-79
2024/04/16 09:51:48;;;;;;;0.52;0.40;;;18.60;58.90;;;;;;6592002;21;20264;-79
2024/04/16 09:54:14;;;;;;;2.00;0.40;;;18.60;58.70;;;;;;6542439;21;20244;-80
2024/04/16 09:56:43;;;;;;;3.13;0.40;;;18.60;58.80;;;;;;6542461;21;20656;-79
2024/04/16 09:59:09;;;;;;;1.40;0.43;;;18.60;58.80;;;;;;6414053;21;20213;-79
2024/04/16 10:01:34;;;;;;;1.58;0.40;;;18.70;58.50;;;;;;6589202;21;20225;-79
2024/04/16 10:04:01;;;;;;;2.80;0.40;;;18.70;58.50;;;;;;6544600;21;20239;-79
2024/04/16 10:06:27;;;;;;;0.80;0.45;;;18.70;58.30;;;;;;6542968;21;20220;-79
2024/04/16 10:08:54;;;;;;;4.40;0.70;;;18.70;58.20;;;;;;6589125;21;20545;-79
2024/04/16 10:11:22;;;;;;;4.53;0.50;;;18.70;58.80;;;;;;6502259;21;20248;-79
2024/04/16 10:13:48;;;;;;;2.10;0.40;;;18.60;58.80;;;;;;6501468;21;20217;-79
2024/04/16 10:16:17;;;;;;;3.00;0.52;;;18.70;58.40;;;;;;6587309;21;20516;-80
2024/04/16 10:18:58;;;;;;;1.02;0.40;;;18.60;59.00;;;;;;6588608;21;20681;-80
2024/04/16 10:21:36;;;;;;;1.05;0.30;;;18.60;58.30;;;;;;6588494;21;20217;-79
2024/04/16 10:24:06;;;;;;;2.55;0.50;;;18.60;59.10;;;;;;6461890;21;20677;-79
2024/04/16 10:27:01;;;;;;;2.65;0.65;;;18.60;58.80;;;;;;6506809;21;20251;-80
2024/04/16 10:29:32;;;;;;;1.35;0.47;;;18.60;58.90;;;;;;6258794;22;20294;-80
2024/04/16 10:32:01;;;;;;;1.48;0.45;;;18.60;59.10;;;;;;6291628;22;20243;-79
2024/04/16 10:34:27;;;;;;;3.80;0.30;;;18.60;58.70;;;;;;6332672;22;20219;-80
2024/04/16 10:36:56;;;;;;;0.57;0.30;;;18.70;58.50;;;;;;6331313;22;21009;-80
2024/04/16 10:39:32;;;;;;;1.95;0.25;;;18.60;58.30;;;;;;6329905;22;20218;-80
2024/04/16 10:42:02;;;;;;;3.40;0.50;;;18.60;58.60;;;;;;6331800;22;20371;-80
2024/04/16 10:44:30;;;;;;;0.88;0.30;;;18.70;58.40;;;;;;6289916;22;20219;-80
2024/04/16 10:46:56;;;;;;;1.27;0.50;;;18.70;58.70;;;;;;6332587;22;20535;-80
2024/04/16 10:49:26;;;;;;;3.13;0.50;;;18.60;58.90;;;;;;6328663;22;20281;-78
2024/04/16 10:51:54;;;;;;;1.20;0.35;;;18.60;58.90;;;;;;6288256;22;20229;-79
2024/04/16 10:54:27;;;;;;;1.17;0.40;;;18.60;58.70;;;;;;6325351;22;20340;-79
2024/04/16 10:56:57;;;;;;;1.00;0.40;;;18.60;59.00;;;;;;6325972;22;20234;-80
2024/04/16 10:59:24;;;;;;;1.13;0.28;;;18.60;58.80;;;;;;6286261;22;20247;-80
2024/04/16 11:01:51;;;;;;;0.50;0.30;;;18.60;58.90;;;;;;6284825;22;20234;-81
2024/04/16 11:04:31;;;;;;;0.85;0.32;;;18.60;59.10;;;;;;6326533;22;20269;-83
2024/04/16 11:07:00;;;;;;;0.77;0.40;;;18.50;58.80;;;;;;6454351;21;20313;-78
2024/04/16 11:09:25;;;;;;;0.80;0.40;;;18.60;58.50;;;;;;6497173;21;20247;-80
2024/04/16 11:12:16;;;;;;;2.28;0.40;;;18.60;58.60;;;;;;6495053;21;20221;-80
2024/04/16 11:14:42;;;;;;;0.60;0.38;;;18.60;58.60;;;;;;6354145;22;20220;-80
2024/04/16 11:17:18;;;;;;;0.80;0.22;;;18.60;58.70;;;;;;6385104;22;20251;-80
2024/04/16 11:19:52;;;;;;;1.10;0.28;;;18.60;58.80;;;;;;6342187;22;20246;-79
2024/04/16 11:23:05;;;;;;;0.70;0.30;;;18.70;58.50;;;;;;6184556;23;20241;-79
2024/04/16 11:25:48;;;;;;;0.88;0.40;;;18.60;58.80;;;;;;6048800;23;20726;-80
2024/04/16 11:28:19;;;;;;;2.45;0.47;;;18.60;58.10;;;;;;5996353;23;20286;-79
2024/04/16 11:31:01;;;;;;;0.45;0.30;;;18.70;58.30;;;;;;5890982;24;20287;-79
2024/04/16 11:33:37;;;;;;;2.05;0.40;;;18.70;58.40;;;;;;5892697;24;20286;-80
2024/04/16 11:36:08;;;;;;;0.30;0.30;;;18.70;58.00;;;;;;5892453;24;20329;-80
2024/04/16 11:38:48;;;;;;;0.40;0.30;;;18.70;58.00;;;;;;5891113;24;20314;-80
2024/04/16 11:41:19;;;;;;;3.60;0.40;;;18.70;58.20;;;;;;5890765;24;20226;-80
2024/04/16 11:43:50;;;;;;;0.63;0.40;;;18.70;58.60;;;;;;5855397;24;20230;-79
2024/04/16 11:46:23;;;;;;;0.85;0.30;;;18.70;58.70;;;;;;5895354;23;20229;-79
2024/04/16 11:49:22;;;;;;;0.43;0.30;;;18.60;58.30;;;;;;6011026;23;20229;-81
2024/04/16 11:52:06;;;;;;;0.35;0.30;;;18.60;58.40;;;;;;6018220;23;20225;-80
2024/04/16 11:54:47;;;;;;;1.60;0.35;;;18.60;58.50;;;;;;6116911;23;20227;-80
2024/04/16 11:57:48;;;;;;;1.45;0.38;;;18.60;58.60;;;;;;6230679;23;20228;-80
2024/04/16 12:01:00;;;;;;;0.30;0.30;;;18.60;58.60;;;;;;6220885;22;20272;-79
2024/04/16 12:08:00;;;;;;;0.45;0.38;;;18.60;58.60;;;;;;5956845;24;20420;-79
2024/04/16 12:10:51;;;;;;;0.40;0.30;;;18.60;58.50;;;;;;5958560;24;20312;-80
2024/04/16 12:13:37;;;;;;;2.15;0.40;;;18.50;58.60;;;;;;5917050;24;20273;-80
2024/04/16 12:16:20;;;;;;;0.90;0.30;;;18.50;58.80;;;;;;5920259;24;20317;-80
2024/04/16 12:18:48;;;;;;;1.15;0.40;;;18.50;58.90;;;;;;5881757;24;20240;-80
2024/04/16 12:22:07;;;;;;;0.30;0.30;;;18.50;59.10;;;;;;5881658;24;20279;-80
2024/04/16 12:25:02;;;;;;;3.70;0.43;;;18.60;58.50;;;;;;5850343;24;20233;-79
2024/04/16 12:29:06;;;;;;;0.65;0.60;;;18.60;58.50;;;;;;5829128;24;20356;-79
2024/04/16 12:31:23;;;;;;;1.30;0.22;;;18.60;58.20;;;;;;5848427;24;20233;-80
2024/04/16 12:33:49;;;;;;;0.40;0.40;;;18.60;58.30;;;;;;5838080;24;20321;-80
2024/04/16 12:36:15;;;;;;;1.10;0.30;;;18.60;58.40;;;;;;5804448;24;20700;-79
2024/04/16 12:38:44;;;;;;;0.85;0.30;;;18.60;58.50;;;;;;5797084;24;20544;-80
2024/04/16 12:41:10;;;;;;;0.70;0.32;;;18.50;58.40;;;;;;5795681;24;20267;-80
2024/04/16 12:43:36;;;;;;;0.30;0.30;;;18.60;58.50;;;;;;5921861;24;20596;-79
2024/04/16 12:46:12;;;;;;;0.20;0.20;;;18.50;58.30;;;;;;5964274;23;20260;-79
2024/04/16 12:48:44;;;;;;;1.73;0.30;;;18.50;59.00;;;;;;6035952;23;20851;-80
2024/04/16 12:51:30;;;;;;;0.20;0.20;;;18.60;58.30;;;;;;6000460;23;20260;-80
2024/04/16 12:54:29;;;;;;;0.35;0.28;;;18.50;58.30;;;;;;5965385;23;20234;-79
2024/04/16 12:57:31;;;;;;;0.50;0.30;;;18.60;58.30;;;;;;6045303;23;20380;-80
2024/04/16 13:00:43;;;;;;;;;;;;;;;;;;;;;